Time;durP1;ratioP1;P1;durP2;ratioP2;P2;SDS_P1;SDS_P2;PMS_P1;PMS_P2;Temp;Humidity;BMP_temperature;BMP_pressure;BME280_temperature;BME280_humidity;BME280_pressure;Samples;Min_cycle;Max_cycle;Signal;HPM_P1;HPM_P2
2022/06/14 00:01:32;;;;;;;7.38;2.28;;;11.50;99.90;;;;;;5044803;28;20039;-70
2022/06/14 00:03:58;;;;;;;12.45;1.95;;;11.60;99.90;;;;;;5052176;28;20520;-69
2022/06/14 00:06:27;;;;;;;4.07;1.50;;;11.60;99.90;;;;;;5051369;28;20135;-70
2022/06/14 00:08:53;;;;;;;5.25;1.50;;;;;;;;;;5052429;28;20043;-70
2022/06/14 00:11:22;;;;;;;7.55;1.73;;;11.50;99.90;;;;;;5052202;28;20029;-70
2022/06/14 00:13:49;;;;;;;2.25;1.40;;;11.50;99.90;;;;;;5052565;28;20017;-70
2022/06/14 00:16:16;;;;;;;4.28;2.00;;;11.50;99.90;;;;;;5052276;28;20028;-70
2022/06/14 00:18:41;;;;;;;3.25;1.35;;;11.60;99.90;;;;;;5051993;28;20050;-70
2022/06/14 00:21:08;;;;;;;8.50;2.38;;;11.50;99.90;;;;;;5051523;28;20029;-70
2022/06/14 00:23:34;;;;;;;4.70;1.50;;;11.40;99.90;;;;;;5052254;28;20112;-69
2022/06/14 00:26:00;;;;;;;2.95;1.73;;;11.40;99.90;;;;;;5051970;28;20041;-70
2022/06/14 00:28:29;;;;;;;7.00;2.25;;;11.30;99.90;;;;;;5052203;28;20033;-70
2022/06/14 00:31:02;;;;;;;6.13;2.22;;;11.30;99.90;;;;;;5052117;28;20021;-70
2022/06/14 00:33:27;;;;;;;7.53;2.20;;;11.30;99.90;;;;;;5052322;28;20025;-70
2022/06/14 00:36:06;;;;;;;6.55;2.08;;;11.30;99.90;;;;;;5052135;28;20487;-70
2022/06/14 00:38:33;;;;;;;3.55;2.05;;;11.20;99.90;;;;;;5051972;28;20067;-69
2022/06/14 00:41:01;;;;;;;4.25;2.05;;;11.20;99.90;;;;;;5051861;28;20421;-69
2022/06/14 00:43:30;;;;;;;8.98;2.20;;;11.30;99.90;;;;;;5050952;28;20040;-70
2022/06/14 00:46:15;;;;;;;4.35;1.95;;;11.20;99.90;;;;;;5051340;28;20025;-69
2022/06/14 00:48:45;;;;;;;7.50;2.08;;;11.20;99.90;;;;;;5052006;28;20055;-70
2022/06/14 00:51:20;;;;;;;7.50;1.92;;;11.00;99.90;;;;;;5051337;28;20051;-69
2022/06/14 00:54:14;;;;;;;4.88;2.40;;;11.10;99.90;;;;;;5052020;28;20032;-69
2022/06/14 00:56:40;;;;;;;;;;;11.10;99.90;;;;;;5040172;28;20113;-69
2022/06/14 00:59:12;;;;;;;6.55;2.25;;;11.10;99.90;;;;;;5033244;28;20008;-70
2022/06/14 01:01:40;;;;;;;4.22;1.85;;;11.20;99.90;;;;;;5051051;28;20041;-69
2022/06/14 01:04:15;;;;;;;8.00;1.80;;;11.20;99.90;;;;;;5051381;28;20021;-70
2022/06/14 01:06:48;;;;;;;5.68;1.90;;;11.20;99.90;;;;;;5051692;28;20398;-70
2022/06/14 01:09:17;;;;;;;6.38;1.90;;;11.50;99.90;;;;;;5051580;28;20049;-69
2022/06/14 01:11:47;;;;;;;7.10;1.63;;;11.10;99.90;;;;;;5051964;28;20547;-69
2022/06/14 01:14:16;;;;;;;6.38;2.13;;;11.20;99.90;;;;;;5051198;28;20105;-70
2022/06/14 01:16:42;;;;;;;5.43;2.10;;;11.30;99.90;;;;;;5051083;28;20052;-70
2022/06/14 01:19:30;;;;;;;10.02;3.53;;;11.50;99.90;;;;;;5050799;28;20458;-69
2022/06/14 01:21:56;;;;;;;7.35;2.45;;;;;;;;;;5050978;28;20041;-69
2022/06/14 01:24:22;;;;;;;7.13;2.22;;;11.10;99.90;;;;;;5050891;28;20118;-70
2022/06/14 01:26:48;;;;;;;8.65;2.53;;;11.10;99.90;;;;;;5051121;28;20547;-69
2022/06/14 01:29:15;;;;;;;7.53;2.22;;;11.00;99.90;;;;;;5045150;28;20033;-70
2022/06/14 01:31:41;;;;;;;6.45;2.25;;;11.00;99.90;;;;;;5037385;28;20017;-70
2022/06/14 01:34:08;;;;;;;9.25;2.78;;;10.90;99.90;;;;;;5050829;28;20414;-70
2022/06/14 01:36:38;;;;;;;7.45;2.90;;;11.20;99.90;;;;;;5050951;28;20033;-69
2022/06/14 01:39:10;;;;;;;6.90;2.65;;;10.70;99.90;;;;;;5050522;28;20390;-70
2022/06/14 01:41:42;;;;;;;4.20;1.80;;;10.70;99.90;;;;;;5049663;28;20057;-69
2022/06/14 01:44:45;;;;;;;3.70;2.70;;;10.70;99.90;;;;;;5050268;28;20040;-70
2022/06/14 01:47:42;;;;;;;5.40;2.00;;;10.60;99.90;;;;;;5053622;28;20108;-69
2022/06/14 01:53:39;;;;;;;8.02;2.60;;;10.50;99.90;;;;;;5047217;28;21204;-69
2022/06/14 01:56:10;;;;;;;8.27;3.03;;;10.50;99.90;;;;;;5049968;28;20056;-70
2022/06/14 01:59:17;;;;;;;9.27;2.85;;;10.50;99.90;;;;;;5050197;28;20033;-70
2022/06/14 02:01:43;;;;;;;9.73;2.42;;;;;;;;;;5050533;28;20300;-69
2022/06/14 02:04:39;;;;;;;7.32;2.47;;;10.60;99.90;;;;;;5050124;28;20466;-69
2022/06/14 02:07:32;;;;;;;17.98;2.83;;;10.80;99.90;;;;;;5050131;28;20041;-70
2022/06/14 02:10:26;;;;;;;4.13;2.05;;;10.50;99.90;;;;;;5050404;28;20032;-70
2022/06/14 02:13:10;;;;;;;6.88;2.03;;;10.70;99.90;;;;;;5050000;28;20017;-70
2022/06/14 02:15:48;;;;;;;5.28;2.45;;;10.50;99.90;;;;;;5050443;28;20037;-70
2022/06/14 02:18:36;;;;;;;7.60;3.53;;;10.50;99.90;;;;;;5050305;28;20063;-70
2022/06/14 02:21:06;;;;;;;9.05;2.97;;;10.40;99.90;;;;;;5049648;28;20046;-70
2022/06/14 02:23:45;;;;;;;6.88;2.05;;;10.30;99.90;;;;;;5050307;28;20140;-70
2022/06/14 02:26:22;;;;;;;6.82;2.45;;;10.30;99.90;;;;;;5049815;28;20025;-70
2022/06/14 02:28:53;;;;;;;5.95;2.40;;;10.70;99.90;;;;;;5049659;28;20466;-70
2022/06/14 02:31:28;;;;;;;4.87;2.40;;;10.20;99.90;;;;;;5050373;28;20367;-70
2022/06/14 02:34:02;;;;;;;5.93;2.15;;;10.20;99.90;;;;;;5050098;28;20028;-70
2022/06/14 02:36:43;;;;;;;6.95;2.88;;;10.10;99.90;;;;;;5048995;28;20096;-70
2022/06/14 02:39:11;;;;;;;8.65;2.72;;;10.10;99.90;;;;;;5049700;28;20466;-70
2022/06/14 02:42:18;;;;;;;6.67;2.70;;;10.10;99.90;;;;;;5049773;28;20029;-70
2022/06/14 02:45:11;;;;;;;13.70;2.47;;;10.10;99.90;;;;;;5027587;28;20506;-71
2022/06/14 02:47:59;;;;;;;9.50;2.35;;;10.00;99.90;;;;;;5027165;28;20117;-71
2022/06/14 02:50:30;;;;;;;12.52;2.40;;;10.00;99.90;;;;;;5027592;28;20084;-69
2022/06/14 02:53:08;;;;;;;5.75;2.53;;;9.90;99.90;;;;;;5027420;28;20056;-69
2022/06/14 02:55:38;;;;;;;9.73;2.50;;;9.80;99.90;;;;;;5027812;28;20036;-70
2022/06/14 02:58:18;;;;;;;7.43;3.08;;;9.90;99.90;;;;;;5026666;28;20521;-70
2022/06/14 03:00:44;;;;;;;8.20;2.97;;;;;;;;;;5027168;28;20491;-70
2022/06/14 03:03:21;;;;;;;8.83;3.40;;;9.80;99.90;;;;;;5026847;28;20108;-71
2022/06/14 03:06:04;;;;;;;10.18;3.20;;;9.90;99.90;;;;;;5027480;28;20484;-70
2022/06/14 03:08:51;;;;;;;5.43;2.67;;;9.70;99.90;;;;;;5031471;28;20828;-70
2022/06/14 03:11:35;;;;;;;4.90;3.00;;;9.60;99.90;;;;;;5030763;28;20426;-70
2022/06/14 03:14:18;;;;;;;5.47;2.93;;;9.60;99.90;;;;;;5029126;28;20026;-69
2022/06/14 03:17:05;;;;;;;6.38;3.30;;;9.60;99.90;;;;;;5028654;28;20280;-70
2022/06/14 03:19:53;;;;;;;6.83;3.00;;;9.60;99.90;;;;;;5016512;28;20071;-70
2022/06/14 03:22:28;;;;;;;11.97;3.10;;;9.60;99.90;;;;;;5051509;28;20174;-70
2022/06/14 03:25:09;;;;;;;7.85;2.75;;;9.60;99.90;;;;;;5051400;28;20052;-70
2022/06/14 03:27:35;;;;;;;6.60;2.93;;;;;;;;;;5051800;28;20033;-70
2022/06/14 03:30:25;;;;;;;6.70;2.90;;;9.50;99.90;;;;;;5052752;28;20163;-70
2022/06/14 03:33:11;;;;;;;6.60;2.83;;;9.50;99.90;;;;;;5053305;28;20021;-70
2022/06/14 03:35:43;;;;;;;5.77;2.27;;;9.60;99.90;;;;;;5053556;28;20040;-70
2022/06/14 03:38:14;;;;;;;8.37;3.23;;;9.50;99.90;;;;;;5052401;28;20033;-70
2022/06/14 03:40:42;;;;;;;5.13;2.37;;;9.50;99.90;;;;;;5052745;28;20108;-70
2022/06/14 03:43:08;;;;;;;7.43;2.73;;;9.50;99.90;;;;;;5052844;28;20024;-70
2022/06/14 03:45:42;;;;;;;9.80;2.90;;;9.50;99.90;;;;;;5053258;28;20394;-70
2022/06/14 03:48:10;;;;;;;8.13;3.20;;;9.60;99.90;;;;;;5052532;28;20013;-70
2022/06/14 03:50:43;;;;;;;11.43;3.50;;;9.50;99.90;;;;;;5053232;28;20040;-70
2022/06/14 03:53:25;;;;;;;10.02;3.03;;;9.50;99.90;;;;;;5052674;28;20028;-70
2022/06/14 03:56:31;;;;;;;7.80;2.53;;;9.60;99.90;;;;;;5052564;28;20082;-70
2022/06/14 03:59:20;;;;;;;11.23;2.87;;;9.00;99.90;;;;;;5042429;28;20111;-70
2022/06/14 04:01:52;;;;;;;7.60;3.37;;;9.40;99.90;;;;;;5052922;28;20017;-70
2022/06/14 04:04:18;;;;;;;9.20;3.35;;;9.50;99.90;;;;;;5052956;28;20056;-70
2022/06/14 04:07:05;;;;;;;6.30;2.70;;;9.40;99.90;;;;;;5052467;28;20098;-70
2022/06/14 04:09:51;;;;;;;6.55;3.20;;;9.50;99.90;;;;;;5041117;28;20439;-70
2022/06/14 04:12:24;;;;;;;6.77;3.00;;;9.60;99.90;;;;;;5052655;28;20021;-70
2022/06/14 04:14:54;;;;;;;5.88;3.20;;;9.60;99.90;;;;;;5052641;28;20059;-70
2022/06/14 04:17:44;;;;;;;4.73;3.00;;;9.90;99.90;;;;;;5052002;28;20389;-70
2022/06/14 04:20:09;;;;;;;7.55;3.47;;;9.70;99.90;;;;;;5052318;28;20098;-70
2022/06/14 04:22:47;;;;;;;6.27;3.20;;;9.60;99.90;;;;;;5052388;28;20077;-70
2022/06/14 04:25:15;;;;;;;9.73;3.13;;;9.70;99.90;;;;;;5051862;28;20073;-70
2022/06/14 04:27:55;;;;;;;8.13;3.33;;;9.80;99.90;;;;;;5052399;28;20047;-70
2022/06/14 04:30:58;;;;;;;7.15;3.28;;;9.80;99.90;;;;;;5052339;28;20036;-70
2022/06/14 04:33:34;;;;;;;9.38;2.90;;;10.00;99.90;;;;;;5052425;28;20554;-70
2022/06/14 04:36:10;;;;;;;7.23;3.80;;;9.90;99.90;;;;;;5040461;28;20367;-71
2022/06/14 04:38:48;;;;;;;7.82;3.35;;;9.90;99.90;;;;;;5051768;28;20036;-71
2022/06/14 04:41:21;;;;;;;6.50;3.10;;;10.10;99.90;;;;;;5039192;28;20079;-70
2022/06/14 04:43:50;;;;;;;6.63;3.05;;;10.00;99.90;;;;;;5052314;28;20025;-71
2022/06/14 04:46:23;;;;;;;6.70;3.03;;;10.30;99.90;;;;;;5051973;28;20028;-71
2022/06/14 04:48:55;;;;;;;5.90;3.35;;;10.20;99.90;;;;;;5052104;28;20552;-70
2022/06/14 04:51:37;;;;;;;11.07;3.77;;;10.30;99.90;;;;;;5051822;28;20025;-70
2022/06/14 04:54:26;;;;;;;7.78;3.47;;;10.30;99.90;;;;;;5051051;28;20056;-71
2022/06/14 04:56:59;;;;;;;7.53;4.25;;;10.50;99.90;;;;;;5044185;28;20167;-71
2022/06/14 04:59:32;;;;;;;6.85;3.03;;;10.50;99.90;;;;;;5050581;28;20029;-71
2022/06/14 05:02:04;;;;;;;10.52;3.08;;;10.60;99.90;;;;;;5051803;28;20025;-70
2022/06/14 05:04:39;;;;;;;10.35;3.22;;;10.70;99.90;;;;;;5051723;28;20762;-70
2022/06/14 05:07:10;;;;;;;8.57;3.40;;;10.80;99.90;;;;;;5050347;28;20370;-70
2022/06/14 05:09:45;;;;;;;12.82;4.30;;;10.70;99.90;;;;;;5046592;28;20036;-70
2022/06/14 05:12:24;;;;;;;7.32;4.15;;;11.00;99.90;;;;;;5051000;28;20043;-70
2022/06/14 05:14:58;;;;;;;7.82;3.47;;;11.00;99.90;;;;;;5048886;28;20021;-70
2022/06/14 05:17:56;;;;;;;10.30;3.28;;;11.20;99.90;;;;;;5042184;28;20028;-70
2022/06/14 05:20:28;;;;;;;6.88;2.90;;;11.30;99.90;;;;;;5028733;28;20068;-71
2022/06/14 05:23:29;;;;;;;10.48;3.42;;;11.40;99.90;;;;;;5027657;28;20025;-70
2022/06/14 05:26:01;;;;;;;9.95;3.55;;;11.80;99.90;;;;;;5002871;28;20088;-70
2022/06/14 05:28:47;;;;;;;7.60;2.72;;;11.50;99.90;;;;;;5022267;28;20083;-70
2022/06/14 05:31:15;;;;;;;7.13;3.10;;;11.60;99.90;;;;;;5019764;28;20504;-70
2022/06/14 05:34:10;;;;;;;9.75;3.47;;;11.70;99.90;;;;;;5028470;28;20055;-70
2022/06/14 05:36:59;;;;;;;15.43;3.75;;;12.00;99.90;;;;;;5027923;28;20041;-70
2022/06/14 05:39:43;;;;;;;7.00;3.17;;;12.00;99.90;;;;;;5028395;28;20116;-72
2022/06/14 05:42:22;;;;;;;6.57;3.60;;;12.10;99.90;;;;;;5028242;28;20046;-72
2022/06/14 05:44:53;;;;;;;10.85;3.55;;;12.20;99.90;;;;;;5024675;28;20026;-71
2022/06/14 05:47:36;;;;;;;9.85;3.78;;;12.30;99.90;;;;;;5028195;28;20036;-71
2022/06/14 05:50:12;;;;;;;7.65;2.85;;;12.60;99.90;;;;;;5021107;28;20470;-71
2022/06/14 05:52:46;;;;;;;12.27;4.07;;;12.70;99.90;;;;;;5020460;28;20029;-71
2022/06/14 05:55:31;;;;;;;10.43;3.10;;;12.70;99.90;;;;;;5018583;28;20026;-71
2022/06/14 05:58:03;;;;;;;14.57;2.10;;;12.70;99.90;;;;;;5045343;28;20025;-71
2022/06/14 06:00:43;;;;;;;10.15;2.33;;;12.90;99.90;;;;;;5048174;28;20021;-71
2022/06/14 06:03:12;;;;;;;6.38;2.13;;;12.90;99.90;;;;;;5049925;28;20112;-71
2022/06/14 06:05:56;;;;;;;7.95;2.25;;;13.00;99.90;;;;;;5049140;28;20029;-71
2022/06/14 06:08:34;;;;;;;5.20;1.83;;;13.40;99.90;;;;;;5050279;28;20021;-71
2022/06/14 06:11:12;;;;;;;6.85;1.55;;;13.30;99.90;;;;;;5037059;28;20021;-71
2022/06/14 06:14:15;;;;;;;7.38;2.17;;;13.50;99.90;;;;;;5050544;28;20031;-71
2022/06/14 06:17:14;;;;;;;10.55;3.05;;;13.60;99.90;;;;;;5036864;28;20032;-71
2022/06/14 06:20:13;;;;;;;5.07;1.80;;;13.70;99.90;;;;;;5041741;28;20049;-71
2022/06/14 06:22:51;;;;;;;8.52;2.05;;;13.70;99.90;;;;;;4991654;28;20037;-71
2022/06/14 06:25:24;;;;;;;10.70;1.67;;;13.80;99.90;;;;;;5008263;28;20101;-71
2022/06/14 06:28:02;;;;;;;4.75;1.10;;;13.70;99.90;;;;;;5008106;28;20081;-71
2022/06/14 06:30:34;;;;;;;6.72;1.50;;;13.80;99.90;;;;;;5008400;28;20495;-70
2022/06/14 06:33:01;;;;;;;5.43;1.17;;;14.30;99.90;;;;;;5007630;28;20595;-71
2022/06/14 06:35:36;;;;;;;4.07;1.30;;;14.00;99.90;;;;;;5008017;28;20439;-70
2022/06/14 06:38:25;;;;;;;6.30;1.60;;;14.20;99.90;;;;;;5007558;28;20030;-71
2022/06/14 06:44:00;;;;;;;5.70;1.10;;;14.20;99.90;;;;;;5007742;28;20108;-71
2022/06/14 06:46:30;;;;;;;2.72;0.82;;;14.20;99.90;;;;;;5008211;28;20045;-71
2022/06/14 06:48:59;;;;;;;5.75;1.48;;;14.20;99.90;;;;;;5007289;28;20022;-71
2022/06/14 06:51:34;;;;;;;4.07;1.00;;;14.30;99.90;;;;;;5007975;28;20022;-71
2022/06/14 06:54:11;;;;;;;13.27;2.42;;;14.60;99.90;;;;;;5007484;28;20426;-71
2022/06/14 06:56:40;;;;;;;3.97;0.82;;;14.60;99.90;;;;;;4994958;28;20541;-71
2022/06/14 06:59:38;;;;;;;6.05;0.85;;;14.70;99.90;;;;;;5026391;28;20812;-71
2022/06/14 07:02:19;;;;;;;6.60;0.93;;;14.50;99.90;;;;;;5049150;28;20096;-70
2022/06/14 07:05:04;;;;;;;11.82;1.10;;;;;;;;;;5048891;28;20037;-71
2022/06/14 07:07:41;;;;;;;6.28;1.15;;;14.90;99.90;;;;;;5046261;28;20021;-70
2022/06/14 07:10:13;;;;;;;6.55;1.50;;;14.70;99.90;;;;;;5042128;28;20032;-71
2022/06/14 07:12:41;;;;;;;4.50;0.85;;;14.80;99.90;;;;;;5046678;28;20029;-70
2022/06/14 07:15:33;;;;;;;4.03;0.90;;;14.60;99.90;;;;;;5048535;28;20116;-70
2022/06/14 07:17:59;;;;;;;4.72;1.10;;;14.70;99.90;;;;;;5051084;28;20060;-70
2022/06/14 07:20:44;;;;;;;4.60;1.88;;;14.80;99.90;;;;;;5052301;28;20049;-70
2022/06/14 07:23:16;;;;;;;2.78;1.63;;;15.10;99.90;;;;;;5048980;28;20045;-70
2022/06/14 07:25:53;;;;;;;2.45;1.00;;;15.00;98.60;;;;;;5048525;28;20017;-70
2022/06/14 07:28:34;;;;;;;6.80;1.15;;;15.00;97.40;;;;;;5050685;28;20033;-70
2022/06/14 07:31:05;;;;;;;5.25;1.00;;;15.20;99.90;;;;;;5050438;28;20029;-70
2022/06/14 07:33:31;;;;;;;7.90;0.98;;;15.30;97.80;;;;;;5049023;28;20052;-70
2022/06/14 07:36:00;;;;;;;8.07;2.65;;;15.60;99.90;;;;;;5048953;28;20025;-70
2022/06/14 07:38:48;;;;;;;2.42;0.70;;;15.80;99.90;;;;;;5052707;28;20025;-70
2022/06/14 07:41:43;;;;;;;5.05;1.63;;;15.60;99.90;;;;;;5049014;28;20559;-70
2022/06/14 07:44:25;;;;;;;4.40;1.02;;;15.90;96.50;;;;;;5036360;28;20029;-71
2022/06/14 07:47:18;;;;;;;2.65;0.82;;;16.10;95.70;;;;;;5048006;28;20038;-72
2022/06/14 07:49:50;;;;;;;6.80;1.85;;;16.40;95.90;;;;;;5048485;28;20063;-72
2022/06/14 07:52:26;;;;;;;3.67;0.77;;;16.50;95.20;;;;;;5048735;28;20032;-71
2022/06/14 07:55:16;;;;;;;3.47;0.68;;;16.50;95.40;;;;;;5052566;28;20025;-72
2022/06/14 07:57:45;;;;;;;3.55;0.73;;;16.50;96.10;;;;;;5042440;28;20098;-71
2022/06/14 08:03:20;;;;;;;4.03;1.00;;;16.90;95.60;;;;;;5041303;28;20047;-71
2022/06/14 08:05:48;;;;;;;4.82;0.85;;;17.00;94.70;;;;;;5064858;28;20017;-71
2022/06/14 08:08:18;;;;;;;4.95;1.33;;;17.00;95.20;;;;;;5056555;28;20028;-71
2022/06/14 08:10:49;;;;;;;4.55;1.08;;;17.00;95.10;;;;;;5053855;28;20028;-71
2022/06/14 08:13:22;;;;;;;3.92;0.70;;;17.00;95.10;;;;;;5059618;28;20111;-70
2022/06/14 08:15:51;;;;;;;2.17;1.00;;;16.90;95.00;;;;;;5053602;28;20074;-71
2022/06/14 08:18:30;;;;;;;2.28;0.60;;;16.80;94.90;;;;;;5050484;28;20497;-72
2022/06/14 08:21:00;;;;;;;5.05;0.98;;;16.90;95.00;;;;;;5052053;28;20381;-71
2022/06/14 08:23:49;;;;;;;2.03;0.80;;;16.80;93.60;;;;;;5052320;28;20071;-70
2022/06/14 08:26:40;;;;;;;5.75;0.90;;;16.80;93.60;;;;;;5051864;28;20036;-71
2022/06/14 08:29:29;;;;;;;3.97;0.90;;;16.70;93.60;;;;;;5050890;28;20177;-71
2022/06/14 08:32:16;;;;;;;3.97;0.90;;;16.80;93.60;;;;;;5051141;28;20025;-71
2022/06/14 08:34:48;;;;;;;5.88;1.52;;;17.00;93.80;;;;;;5051891;28;20364;-71
2022/06/14 08:37:25;;;;;;;4.65;0.90;;;17.20;93.90;;;;;;5066132;28;20037;-71
2022/06/14 08:40:02;;;;;;;7.03;1.15;;;17.40;92.90;;;;;;5051011;28;20029;-71
2022/06/14 08:42:34;;;;;;;4.03;0.95;;;17.80;93.50;;;;;;5049964;28;20017;-71
2022/06/14 08:45:13;;;;;;;6.35;1.88;;;17.90;93.30;;;;;;5047128;28;20017;-71
2022/06/14 08:47:56;;;;;;;3.03;0.68;;;18.10;92.10;;;;;;5051691;28;20037;-71
2022/06/14 08:51:00;;;;;;;1.20;0.60;;;18.30;91.70;;;;;;5058661;28;20017;-71
2022/06/14 08:53:53;;;;;;;2.25;1.23;;;18.50;91.50;;;;;;5041143;28;20025;-71
2022/06/14 08:56:22;;;;;;;3.10;0.95;;;18.70;91.30;;;;;;5050245;28;20041;-71
2022/06/14 08:59:11;;;;;;;3.75;0.98;;;18.90;90.90;;;;;;5053564;28;20108;-70
2022/06/14 09:02:20;;;;;;;2.63;0.82;;;19.00;91.20;;;;;;5050833;28;20152;-71
2022/06/14 09:05:24;;;;;;;2.42;0.70;;;19.00;90.40;;;;;;5045953;28;20029;-71
2022/06/14 09:08:21;;;;;;;3.10;0.88;;;18.70;90.40;;;;;;5044220;28;20116;-72
2022/06/14 09:10:54;;;;;;;2.60;0.60;;;18.50;90.50;;;;;;5051357;28;20406;-71
2022/06/14 09:13:57;;;;;;;2.33;0.73;;;19.30;91.60;;;;;;5057490;28;20020;-71
2022/06/14 09:16:38;;;;;;;5.30;0.63;;;18.40;90.60;;;;;;5038493;28;20087;-71
2022/06/14 09:19:25;;;;;;;3.25;0.80;;;18.50;90.60;;;;;;5048833;28;20411;-71
2022/06/14 09:22:11;;;;;;;1.45;0.70;;;18.60;90.40;;;;;;5050679;28;20024;-72
2022/06/14 09:24:42;;;;;;;3.08;1.23;;;18.80;90.20;;;;;;5050830;28;20045;-71
2022/06/14 09:27:38;;;;;;;3.50;1.38;;;19.00;90.00;;;;;;5061280;28;20021;-71
2022/06/14 09:30:07;;;;;;;2.97;0.80;;;19.30;89.70;;;;;;5050880;28;20136;-71
2022/06/14 09:33:10;;;;;;;2.83;0.77;;;19.50;90.20;;;;;;5052761;28;20017;-71
2022/06/14 09:36:00;;;;;;;4.25;0.55;;;19.80;87.60;;;;;;5056449;28;20572;-70
2022/06/14 09:38:58;;;;;;;2.55;1.00;;;19.70;88.80;;;;;;5039055;28;20059;-71
2022/06/14 09:42:01;;;;;;;2.40;0.70;;;19.50;85.70;;;;;;5050601;28;20029;-71
2022/06/14 09:44:47;;;;;;;4.38;0.90;;;19.40;86.40;;;;;;5050644;28;20051;-71
2022/06/14 09:47:33;;;;;;;5.88;0.93;;;19.40;87.50;;;;;;5029118;28;20044;-71
2022/06/14 09:50:42;;;;;;;4.10;0.82;;;19.50;86.50;;;;;;5050029;28;20024;-71
2022/06/14 09:53:22;;;;;;;3.90;0.88;;;19.50;85.80;;;;;;5050115;28;20009;-71
2022/06/14 09:56:13;;;;;;;2.70;0.82;;;19.40;87.00;;;;;;5050284;28;20040;-71
2022/06/14 09:58:57;;;;;;;3.00;0.60;;;19.20;86.80;;;;;;5050322;28;20086;-71
2022/06/14 10:01:35;;;;;;;;;;;19.10;85.30;;;;;;5050176;28;20381;-71
2022/06/14 10:04:01;;;;;;;1.77;0.63;;;19.10;86.10;;;;;;5049533;28;20273;-71
2022/06/14 10:06:52;;;;;;;2.97;0.70;;;20.20;86.80;;;;;;5050152;28;20017;-71
2022/06/14 10:09:41;;;;;;;3.70;0.77;;;19.40;87.50;;;;;;5048272;28;20037;-71
2022/06/14 10:12:42;;;;;;;6.88;1.58;;;19.60;84.50;;;;;;5052113;28;20108;-71
2022/06/14 10:15:40;;;;;;;1.45;0.82;;;19.60;84.20;;;;;;5039099;28;20033;-71
2022/06/14 10:18:27;;;;;;;5.10;0.77;;;19.70;83.20;;;;;;5049742;28;20082;-71
2022/06/14 10:21:22;;;;;;;3.75;0.90;;;19.30;83.40;;;;;;5049659;28;20036;-71
2022/06/14 10:24:00;;;;;;;1.58;0.60;;;19.00;84.00;;;;;;5046783;28;20067;-71
2022/06/14 10:29:39;;;;;;;2.10;0.68;;;18.70;84.60;;;;;;5048200;28;20031;-71
2022/06/14 10:32:20;;;;;;;4.13;0.73;;;18.60;84.50;;;;;;5049087;28;20385;-71
2022/06/14 10:34:50;;;;;;;4.80;0.63;;;18.70;86.20;;;;;;5045680;28;20082;-72
2022/06/14 10:37:49;;;;;;;1.65;0.80;;;18.80;86.00;;;;;;5044694;28;20025;-71
2022/06/14 10:40:47;;;;;;;2.65;0.40;;;18.80;83.80;;;;;;5036085;28;20397;-71
2022/06/14 10:43:21;;;;;;;2.45;0.52;;;18.80;83.80;;;;;;5046926;28;20078;-71
2022/06/14 10:45:49;;;;;;;;;;;18.80;85.60;;;;;;5048072;28;20091;-71
2022/06/14 10:48:38;;;;;;;2.95;0.60;;;18.90;86.20;;;;;;5049757;28;19908;-71
2022/06/14 10:51:45;;;;;;;3.42;0.70;;;18.90;83.60;;;;;;5049490;28;20033;-70
2022/06/14 10:54:26;;;;;;;1.98;0.70;;;18.90;83.30;;;;;;5007712;28;20032;-71
2022/06/14 10:57:15;;;;;;;3.78;0.52;;;19.00;83.50;;;;;;5007161;28;20045;-69
2022/06/14 10:59:55;;;;;;;3.50;0.80;;;20.30;85.70;;;;;;4949556;29;20047;-70
2022/06/14 11:02:45;;;;;;;2.28;0.55;;;19.20;81.90;;;;;;4949432;29;20054;-70
2022/06/14 11:05:29;;;;;;;3.28;0.90;;;19.30;82.90;;;;;;4942343;29;20122;-70
2022/06/14 11:08:05;;;;;;;2.40;0.80;;;19.40;81.90;;;;;;4946752;29;20560;-70
2022/06/14 11:10:57;;;;;;;1.88;0.47;;;19.80;84.10;;;;;;4932957;29;20504;-70
2022/06/14 11:13:46;;;;;;;1.48;0.60;;;19.60;81.80;;;;;;4949066;29;20046;-70
2022/06/14 11:16:31;;;;;;;4.55;1.45;;;19.90;81.30;;;;;;4948606;29;20568;-69
2022/06/14 11:19:39;;;;;;;2.35;0.70;;;20.00;80.90;;;;;;4949059;29;20028;-69
2022/06/14 11:22:36;;;;;;;5.78;0.90;;;20.20;80.20;;;;;;4948370;29;20043;-69
2022/06/14 11:25:20;;;;;;;3.20;0.98;;;20.30;79.90;;;;;;4979140;28;20049;-69
2022/06/14 11:28:22;;;;;;;3.47;0.65;;;20.10;79.30;;;;;;5002772;28;20049;-70
2022/06/14 11:31:13;;;;;;;3.58;0.70;;;19.90;81.70;;;;;;5010550;28;20080;-70
2022/06/14 11:34:00;;;;;;;3.75;1.27;;;19.80;82.00;;;;;;4997960;28;20034;-70
2022/06/14 11:36:35;;;;;;;2.47;0.70;;;19.50;80.60;;;;;;5024048;28;20081;-70
2022/06/14 11:39:31;;;;;;;3.63;0.95;;;19.30;82.80;;;;;;5034215;28;20013;-70
2022/06/14 11:42:03;;;;;;;4.47;0.68;;;19.40;81.70;;;;;;5049168;28;20501;-70
2022/06/14 11:45:07;;;;;;;2.78;1.00;;;19.40;83.50;;;;;;5053183;28;20099;-70
2022/06/14 11:47:51;;;;;;;2.35;0.88;;;19.30;81.60;;;;;;5043434;28;20025;-71
2022/06/14 11:50:37;;;;;;;5.07;1.17;;;20.30;84.30;;;;;;5052315;28;20025;-70
2022/06/14 11:53:09;;;;;;;3.38;0.85;;;19.50;82.00;;;;;;5051819;28;20102;-70
2022/06/14 11:55:36;;;;;;;5.20;1.60;;;19.70;83.90;;;;;;5052389;28;20075;-71
2022/06/14 11:58:05;;;;;;;4.40;0.60;;;19.70;83.30;;;;;;5052195;28;20024;-71
2022/06/14 12:00:49;;;;;;;4.50;0.88;;;19.90;83.10;;;;;;5051969;28;20051;-71
2022/06/14 12:03:56;;;;;;;4.57;0.88;;;19.90;81.60;;;;;;5052393;28;20021;-71
2022/06/14 12:06:41;;;;;;;3.15;0.52;;;21.20;83.80;;;;;;5047442;28;20112;-71
2022/06/14 12:09:25;;;;;;;4.30;1.13;;;20.00;83.00;;;;;;5050994;28;20079;-70
2022/06/14 12:11:58;;;;;;;5.03;1.55;;;20.00;83.40;;;;;;5052305;28;20029;-70
2022/06/14 12:14:34;;;;;;;;;;;20.10;83.00;;;;;;5053542;28;20031;-70
2022/06/14 12:17:25;;;;;;;2.55;0.68;;;20.30;83.30;;;;;;5051953;28;19913;-70
2022/06/14 12:20:04;;;;;;;3.70;0.68;;;20.30;80.70;;;;;;5041762;28;20027;-70
2022/06/14 12:22:37;;;;;;;3.85;0.90;;;20.30;80.50;;;;;;5051553;28;20013;-71
2022/06/14 12:28:22;;;;;;;5.53;0.70;;;20.20;82.70;;;;;;5050515;28;20062;-70
2022/06/14 12:30:52;;;;;;;1.70;1.13;;;20.20;80.50;;;;;;5053738;28;20025;-70
2022/06/14 12:33:31;;;;;;;2.78;1.15;;;20.50;81.60;;;;;;5054652;28;20093;-70
2022/06/14 12:36:13;;;;;;;6.15;1.20;;;20.40;81.40;;;;;;5051198;28;20060;-71
2022/06/14 12:38:42;;;;;;;3.00;0.70;;;20.40;79.80;;;;;;5052132;28;20029;-69
2022/06/14 12:41:31;;;;;;;2.85;1.23;;;20.50;81.00;;;;;;5051429;28;20090;-69
2022/06/14 12:44:11;;;;;;;4.88;1.02;;;20.40;79.50;;;;;;5051563;28;20028;-70
2022/06/14 12:46:42;;;;;;;2.15;0.80;;;20.50;79.80;;;;;;5051608;28;20021;-69
2022/06/14 12:49:10;;;;;;;3.75;1.13;;;20.60;81.30;;;;;;5051212;28;20753;-68
2022/06/14 12:51:45;;;;;;;3.63;1.00;;;20.70;78.00;;;;;;5052511;28;20035;-68
2022/06/14 12:54:32;;;;;;;5.32;0.75;;;20.60;80.40;;;;;;5058845;28;20024;-68
2022/06/14 12:57:08;;;;;;;7.18;1.58;;;20.60;79.10;;;;;;5047227;28;20040;-69
2022/06/14 13:00:07;;;;;;;2.65;0.60;;;20.20;79.30;;;;;;5058853;28;20416;-68
2022/06/14 13:02:39;;;;;;;3.20;1.10;;;20.30;80.40;;;;;;5052734;28;20048;-70
2022/06/14 13:05:15;;;;;;;4.07;1.38;;;20.30;81.70;;;;;;5034573;28;20021;-69
2022/06/14 13:08:16;;;;;;;1.60;0.68;;;21.10;82.20;;;;;;5037993;28;20024;-69
2022/06/14 13:10:48;;;;;;;3.17;0.80;;;20.70;79.80;;;;;;5045979;28;20118;-69
2022/06/14 13:13:37;;;;;;;5.25;0.98;;;20.70;78.40;;;;;;5047181;28;20025;-69
2022/06/14 13:16:44;;;;;;;5.90;0.75;;;21.00;78.70;;;;;;5050616;28;20037;-70
2022/06/14 13:19:46;;;;;;;3.95;0.75;;;21.00;78.80;;;;;;5049471;28;20028;-69
2022/06/14 13:22:49;;;;;;;4.60;1.00;;;21.20;78.60;;;;;;5049095;28;20060;-69
2022/06/14 13:25:21;;;;;;;1.77;0.80;;;21.50;78.50;;;;;;5042908;28;20082;-70
2022/06/14 13:27:49;;;;;;;6.00;1.02;;;21.70;78.00;;;;;;5050343;28;20100;-70
2022/06/14 13:30:41;;;;;;;3.97;0.73;;;21.70;79.20;;;;;;5050853;28;20033;-68
2022/06/14 13:33:24;;;;;;;2.40;0.90;;;21.70;79.20;;;;;;5048072;28;20501;-69
2022/06/14 13:36:13;;;;;;;6.03;1.20;;;21.90;78.70;;;;;;5050326;28;20040;-69
2022/06/14 13:39:01;;;;;;;4.15;1.00;;;21.90;76.70;;;;;;5050335;28;20089;-69
2022/06/14 13:42:00;;;;;;;5.40;0.70;;;22.20;78.40;;;;;;5049967;28;20104;-70
2022/06/14 13:44:36;;;;;;;1.80;0.80;;;22.20;77.10;;;;;;5044887;28;20539;-69
2022/06/14 13:47:11;;;;;;;3.90;0.82;;;22.20;74.90;;;;;;5038401;28;20068;-69
2022/06/14 13:49:58;;;;;;;4.55;1.23;;;22.20;77.10;;;;;;5041160;28;20041;-69
2022/06/14 13:52:40;;;;;;;3.22;0.60;;;22.10;75.60;;;;;;5039998;28;20056;-69
2022/06/14 13:55:29;;;;;;;3.17;0.77;;;21.80;75.60;;;;;;5037166;28;20021;-69
2022/06/14 13:58:04;;;;;;;4.32;0.93;;;22.60;78.00;;;;;;5024769;28;20041;-69
2022/06/14 14:00:53;;;;;;;3.13;0.60;;;21.80;76.90;;;;;;5037895;28;20044;-68
2022/06/14 14:03:42;;;;;;;3.42;1.55;;;22.00;76.70;;;;;;5034747;28;20037;-69
2022/06/14 14:06:30;;;;;;;4.40;0.80;;;22.30;76.00;;;;;;5053922;28;20593;-69
2022/06/14 14:09:16;;;;;;;5.00;1.02;;;22.30;73.70;;;;;;5047596;28;20498;-68
2022/06/14 14:12:04;;;;;;;1.90;0.60;;;22.50;74.20;;;;;;5053081;28;20072;-69
2022/06/14 14:14:45;;;;;;;1.63;0.80;;;22.60;75.00;;;;;;5048185;28;20025;-68